sensor_id;sensor_type;location;lat;lon;timestamp;temperature;humidity
17740;DHT22;8990;33.226;-97.150;2023-11-22T00:00:09;12.00;99.90
17740;DHT22;8990;33.226;-97.150;2023-11-22T00:02:39;12.00;99.90
17740;DHT22;8990;33.226;-97.150;2023-11-22T00:05:08;11.90;99.90
17740;DHT22;8990;33.226;-97.150;2023-11-22T00:07:38;11.70;99.90
17740;DHT22;8990;33.226;-97.150;2023-11-22T00:10:07;11.60;99.90
17740;DHT22;8990;33.226;-97.150;2023-11-22T00:12:37;11.50;99.90
17740;DHT22;8990;33.226;-97.150;2023-11-22T00:15:08;11.40;99.90
17740;DHT22;8990;33.226;-97.150;2023-11-22T00:17:38;11.30;99.90
17740;DHT22;8990;33.226;-97.150;2023-11-22T00:20:08;11.30;99.90
17740;DHT22;8990;33.226;-97.150;2023-11-22T00:22:37;11.30;99.90
17740;DHT22;8990;33.226;-97.150;2023-11-22T00:25:08;11.20;99.90
17740;DHT22;8990;33.226;-97.150;2023-11-22T00:27:36;11.20;99.90
17740;DHT22;8990;33.226;-97.150;2023-11-22T00:30:08;11.10;99.90
17740;DHT22;8990;33.226;-97.150;2023-11-22T00:32:37;11.10;99.90
17740;DHT22;8990;33.226;-97.150;2023-11-22T00:35:07;11.00;99.90
17740;DHT22;8990;33.226;-97.150;2023-11-22T00:37:36;10.90;99.90
17740;DHT22;8990;33.226;-97.150;2023-11-22T00:40:06;10.90;99.90
17740;DHT22;8990;33.226;-97.150;2023-11-22T00:42:39;10.80;99.90
17740;DHT22;8990;33.226;-97.150;2023-11-22T00:45:11;10.80;99.90
17740;DHT22;8990;33.226;-97.150;2023-11-22T00:47:40;10.80;99.90
17740;DHT22;8990;33.226;-97.150;2023-11-22T00:50:09;10.70;99.90
17740;DHT22;8990;33.226;-97.150;2023-11-22T00:52:38;10.60;99.90
17740;DHT22;8990;33.226;-97.150;2023-11-22T00:55:11;10.60;99.90
17740;DHT22;8990;33.226;-97.150;2023-11-22T00:57:40;10.50;99.90
17740;DHT22;8990;33.226;-97.150;2023-11-22T01:00:11;10.40;99.90
17740;DHT22;8990;33.226;-97.150;2023-11-22T01:02:42;10.50;99.90
17740;DHT22;8990;33.226;-97.150;2023-11-22T01:05:10;10.40;99.90
17740;DHT22;8990;33.226;-97.150;2023-11-22T01:07:39;10.30;99.90
17740;DHT22;8990;33.226;-97.150;2023-11-22T01:10:09;10.20;99.90
17740;DHT22;8990;33.226;-97.150;2023-11-22T01:12:38;10.20;99.90
17740;DHT22;8990;33.226;-97.150;2023-11-22T01:15:11;10.20;99.90
17740;DHT22;8990;33.226;-97.150;2023-11-22T01:17:40;10.10;99.90
17740;DHT22;8990;33.226;-97.150;2023-11-22T01:20:09;10.10;99.90
17740;DHT22;8990;33.226;-97.150;2023-11-22T01:22:38;10.10;99.90
17740;DHT22;8990;33.226;-97.150;2023-11-22T01:25:07;10.10;99.90
17740;DHT22;8990;33.226;-97.150;2023-11-22T01:27:37;10.10;99.90
17740;DHT22;8990;33.226;-97.150;2023-11-22T01:30:07;10.00;99.90
17740;DHT22;8990;33.226;-97.150;2023-11-22T01:32:37;10.00;99.90
17740;DHT22;8990;33.226;-97.150;2023-11-22T01:35:07;9.90;99.90
17740;DHT22;8990;33.226;-97.150;2023-11-22T01:37:36;9.80;99.90
17740;DHT22;8990;33.226;-97.150;2023-11-22T01:40:06;9.80;99.90
17740;DHT22;8990;33.226;-97.150;2023-11-22T01:42:35;9.70;99.90
17740;DHT22;8990;33.226;-97.150;2023-11-22T01:45:09;9.70;99.90
17740;DHT22;8990;33.226;-97.150;2023-11-22T01:47:40;9.60;99.90
17740;DHT22;8990;33.226;-97.150;2023-11-22T01:50:10;9.60;99.90
17740;DHT22;8990;33.226;-97.150;2023-11-22T01:52:41;9.60;99.90
17740;DHT22;8990;33.226;-97.150;2023-11-22T01:55:11;9.60;99.90
17740;DHT22;8990;33.226;-97.150;2023-11-22T01:57:41;9.50;99.90
17740;DHT22;8990;33.226;-97.150;2023-11-22T02:00:10;9.50;99.90
17740;DHT22;8990;33.226;-97.150;2023-11-22T02:02:43;9.40;99.90
17740;DHT22;8990;33.226;-97.150;2023-11-22T02:05:13;9.50;99.90
17740;DHT22;8990;33.226;-97.150;2023-11-22T02:07:42;9.50;99.90
17740;DHT22;8990;33.226;-97.150;2023-11-22T02:10:11;9.40;99.90
17740;DHT22;8990;33.226;-97.150;2023-11-22T02:12:42;9.30;99.90
17740;DHT22;8990;33.226;-97.150;2023-11-22T02:15:11;9.20;99.90
17740;DHT22;8990;33.226;-97.150;2023-11-22T02:17:40;9.20;99.90
17740;DHT22;8990;33.226;-97.150;2023-11-22T02:20:11;9.00;99.90
17740;DHT22;8990;33.226;-97.150;2023-11-22T02:22:44;9.00;99.90
17740;DHT22;8990;33.226;-97.150;2023-11-22T02:25:16;9.00;99.90
17740;DHT22;8990;33.226;-97.150;2023-11-22T02:27:45;8.80;99.90
17740;DHT22;8990;33.226;-97.150;2023-11-22T02:30:13;8.80;99.90
17740;DHT22;8990;33.226;-97.150;2023-11-22T02:32:44;8.70;99.90
17740;DHT22;8990;33.226;-97.150;2023-11-22T02:35:13;8.70;99.90
17740;DHT22;8990;33.226;-97.150;2023-11-22T02:37:43;8.70;99.90
17740;DHT22;8990;33.226;-97.150;2023-11-22T02:40:18;8.70;99.90
17740;DHT22;8990;33.226;-97.150;2023-11-22T02:42:48;8.70;99.90
17740;DHT22;8990;33.226;-97.150;2023-11-22T02:45:18;8.60;99.90
17740;DHT22;8990;33.226;-97.150;2023-11-22T02:47:47;8.60;99.90
17740;DHT22;8990;33.226;-97.150;2023-11-22T02:50:16;8.50;99.90
17740;DHT22;8990;33.226;-97.150;2023-11-22T02:52:45;8.50;99.90
17740;DHT22;8990;33.226;-97.150;2023-11-22T02:55:14;8.50;99.90
17740;DHT22;8990;33.226;-97.150;2023-11-22T02:57:44;8.50;99.90
17740;DHT22;8990;33.226;-97.150;2023-11-22T03:00:15;8.50;99.90
17740;DHT22;8990;33.226;-97.150;2023-11-22T03:02:46;8.40;99.90
17740;DHT22;8990;33.226;-97.150;2023-11-22T03:05:18;8.30;99.90
17740;DHT22;8990;33.226;-97.150;2023-11-22T03:07:47;8.30;99.90
17740;DHT22;8990;33.226;-97.150;2023-11-22T03:10:19;8.20;99.90
17740;DHT22;8990;33.226;-97.150;2023-11-22T03:12:49;8.20;99.90
17740;DHT22;8990;33.226;-97.150;2023-11-22T03:15:18;8.10;99.90
17740;DHT22;8990;33.226;-97.150;2023-11-22T03:17:47;8.10;99.90
17740;DHT22;8990;33.226;-97.150;2023-11-22T03:20:16;8.00;99.90
17740;DHT22;8990;33.226;-97.150;2023-11-22T03:22:45;8.00;99.90
17740;DHT22;8990;33.226;-97.150;2023-11-22T03:25:17;7.90;99.90
17740;DHT22;8990;33.226;-97.150;2023-11-22T03:27:48;7.90;99.90
17740;DHT22;8990;33.226;-97.150;2023-11-22T03:30:18;7.80;99.90
17740;DHT22;8990;33.226;-97.150;2023-11-22T03:32:48;7.80;99.90
17740;DHT22;8990;33.226;-97.150;2023-11-22T03:35:18;7.60;99.90
17740;DHT22;8990;33.226;-97.150;2023-11-22T03:37:47;7.60;99.90
17740;DHT22;8990;33.226;-97.150;2023-11-22T03:40:17;7.60;99.90
17740;DHT22;8990;33.226;-97.150;2023-11-22T03:42:48;7.50;99.90
17740;DHT22;8990;33.226;-97.150;2023-11-22T03:45:17;7.60;99.90
17740;DHT22;8990;33.226;-97.150;2023-11-22T03:47:46;7.60;99.90
17740;DHT22;8990;33.226;-97.150;2023-11-22T03:50:15;7.60;99.90
17740;DHT22;8990;33.226;-97.150;2023-11-22T03:52:44;7.50;99.90
17740;DHT22;8990;33.226;-97.150;2023-11-22T03:55:13;7.60;99.90
17740;DHT22;8990;33.226;-97.150;2023-11-22T03:57:42;7.70;99.90
17740;DHT22;8990;33.226;-97.150;2023-11-22T04:00:14;7.70;99.90
17740;DHT22;8990;33.226;-97.150;2023-11-22T04:02:43;7.70;99.90
17740;DHT22;8990;33.226;-97.150;2023-11-22T04:05:12;7.70;99.90
17740;DHT22;8990;33.226;-97.150;2023-11-22T04:07:41;7.80;99.90
17740;DHT22;8990;33.226;-97.150;2023-11-22T04:10:10;7.70;99.90
17740;DHT22;8990;33.226;-97.150;2023-11-22T04:12:39;7.70;99.90
17740;DHT22;8990;33.226;-97.150;2023-11-22T04:15:08;7.70;99.90
17740;DHT22;8990;33.226;-97.150;2023-11-22T04:17:39;7.60;99.90
17740;DHT22;8990;33.226;-97.150;2023-11-22T04:20:09;7.50;99.90
17740;DHT22;8990;33.226;-97.150;2023-11-22T04:22:42;7.50;99.90
17740;DHT22;8990;33.226;-97.150;2023-11-22T04:25:12;7.50;99.90
17740;DHT22;8990;33.226;-97.150;2023-11-22T04:27:41;7.40;99.90
17740;DHT22;8990;33.226;-97.150;2023-11-22T04:30:11;7.40;99.90
17740;DHT22;8990;33.226;-97.150;2023-11-22T04:32:43;7.40;99.90
17740;DHT22;8990;33.226;-97.150;2023-11-22T04:35:12;7.30;99.90
17740;DHT22;8990;33.226;-97.150;2023-11-22T04:37:41;7.30;99.90
17740;DHT22;8990;33.226;-97.150;2023-11-22T04:40:11;7.10;99.90
17740;DHT22;8990;33.226;-97.150;2023-11-22T04:42:41;6.90;99.90
17740;DHT22;8990;33.226;-97.150;2023-11-22T04:45:10;6.80;99.90
17740;DHT22;8990;33.226;-97.150;2023-11-22T04:47:39;6.60;99.90
17740;DHT22;8990;33.226;-97.150;2023-11-22T04:50:10;6.70;99.90
17740;DHT22;8990;33.226;-97.150;2023-11-22T04:52:40;6.70;99.90
17740;DHT22;8990;33.226;-97.150;2023-11-22T04:55:10;6.70;99.90
17740;DHT22;8990;33.226;-97.150;2023-11-22T04:57:39;6.60;99.90
17740;DHT22;8990;33.226;-97.150;2023-11-22T05:00:09;6.70;99.90
17740;DHT22;8990;33.226;-97.150;2023-11-22T05:02:39;6.70;99.90
17740;DHT22;8990;33.226;-97.150;2023-11-22T05:05:09;6.70;99.90
17740;DHT22;8990;33.226;-97.150;2023-11-22T05:07:39;6.60;99.90
17740;DHT22;8990;33.226;-97.150;2023-11-22T05:10:08;6.60;99.90
17740;DHT22;8990;33.226;-97.150;2023-11-22T05:12:37;6.40;99.90
17740;DHT22;8990;33.226;-97.150;2023-11-22T05:15:07;6.40;99.90
17740;DHT22;8990;33.226;-97.150;2023-11-22T05:17:36;6.30;99.90
17740;DHT22;8990;33.226;-97.150;2023-11-22T05:20:07;6.30;99.90
17740;DHT22;8990;33.226;-97.150;2023-11-22T05:22:38;6.30;99.90
17740;DHT22;8990;33.226;-97.150;2023-11-22T05:25:08;6.30;99.90
17740;DHT22;8990;33.226;-97.150;2023-11-22T05:27:37;6.30;99.90
17740;DHT22;8990;33.226;-97.150;2023-11-22T05:30:07;6.30;99.90
17740;DHT22;8990;33.226;-97.150;2023-11-22T05:32:37;6.30;99.90
17740;DHT22;8990;33.226;-97.150;2023-11-22T05:35:06;6.30;99.90
17740;DHT22;8990;33.226;-97.150;2023-11-22T05:37:38;6.20;99.90
17740;DHT22;8990;33.226;-97.150;2023-11-22T05:40:08;6.20;99.90
17740;DHT22;8990;33.226;-97.150;2023-11-22T05:42:38;6.10;99.90
17740;DHT22;8990;33.226;-97.150;2023-11-22T05:45:08;6.10;99.90
17740;DHT22;8990;33.226;-97.150;2023-11-22T05:47:37;6.10;99.90
17740;DHT22;8990;33.226;-97.150;2023-11-22T05:50:07;6.00;99.90
17740;DHT22;8990;33.226;-97.150;2023-11-22T05:52:37;5.90;99.90
17740;DHT22;8990;33.226;-97.150;2023-11-22T05:55:08;5.90;99.90
17740;DHT22;8990;33.226;-97.150;2023-11-22T05:57:36;5.90;99.90
17740;DHT22;8990;33.226;-97.150;2023-11-22T06:00:06;5.90;99.90
17740;DHT22;8990;33.226;-97.150;2023-11-22T06:02:36;5.90;99.90
17740;DHT22;8990;33.226;-97.150;2023-11-22T06:05:06;5.90;99.90
17740;DHT22;8990;33.226;-97.150;2023-11-22T06:07:38;6.00;99.90
17740;DHT22;8990;33.226;-97.150;2023-11-22T06:10:07;6.00;99.90
17740;DHT22;8990;33.226;-97.150;2023-11-22T06:12:36;5.90;99.90
17740;DHT22;8990;33.226;-97.150;2023-11-22T06:15:06;5.80;99.90
17740;DHT22;8990;33.226;-97.150;2023-11-22T06:17:35;5.70;99.90
17740;DHT22;8990;33.226;-97.150;2023-11-22T06:20:05;5.80;99.90
17740;DHT22;8990;33.226;-97.150;2023-11-22T06:22:35;5.90;99.90
17740;DHT22;8990;33.226;-97.150;2023-11-22T06:25:09;5.70;99.90
17740;DHT22;8990;33.226;-97.150;2023-11-22T06:27:39;5.70;99.90
17740;DHT22;8990;33.226;-97.150;2023-11-22T06:30:08;5.60;99.90
17740;DHT22;8990;33.226;-97.150;2023-11-22T06:32:37;5.60;99.90
17740;DHT22;8990;33.226;-97.150;2023-11-22T06:35:07;5.50;99.90
17740;DHT22;8990;33.226;-97.150;2023-11-22T06:37:38;5.60;99.90
17740;DHT22;8990;33.226;-97.150;2023-11-22T06:40:10;5.70;99.90
17740;DHT22;8990;33.226;-97.150;2023-11-22T06:42:39;5.60;99.90
17740;DHT22;8990;33.226;-97.150;2023-11-22T06:45:09;5.70;99.90
17740;DHT22;8990;33.226;-97.150;2023-11-22T06:47:39;5.70;99.90
17740;DHT22;8990;33.226;-97.150;2023-11-22T06:50:09;5.60;99.90
17740;DHT22;8990;33.226;-97.150;2023-11-22T06:52:38;5.70;99.90
17740;DHT22;8990;33.226;-97.150;2023-11-22T06:55:09;5.70;99.90
17740;DHT22;8990;33.226;-97.150;2023-11-22T06:57:38;5.60;99.90
17740;DHT22;8990;33.226;-97.150;2023-11-22T07:00:08;5.50;99.90
17740;DHT22;8990;33.226;-97.150;2023-11-22T07:02:37;5.50;99.90
17740;DHT22;8990;33.226;-97.150;2023-11-22T07:05:07;5.50;99.90
17740;DHT22;8990;33.226;-97.150;2023-11-22T07:07:36;5.50;99.90
17740;DHT22;8990;33.226;-97.150;2023-11-22T07:10:06;5.50;99.90
17740;DHT22;8990;33.226;-97.150;2023-11-22T07:12:36;5.50;99.90
17740;DHT22;8990;33.226;-97.150;2023-11-22T07:15:07;5.40;99.90
17740;DHT22;8990;33.226;-97.150;2023-11-22T07:17:36;5.40;99.90
17740;DHT22;8990;33.226;-97.150;2023-11-22T07:20:08;5.40;99.90
17740;DHT22;8990;33.226;-97.150;2023-11-22T07:22:39;5.20;99.90
17740;DHT22;8990;33.226;-97.150;2023-11-22T07:25:10;5.30;99.90
17740;DHT22;8990;33.226;-97.150;2023-11-22T07:27:47;5.10;99.90
17740;DHT22;8990;33.226;-97.150;2023-11-22T07:30:16;5.20;99.90
17740;DHT22;8990;33.226;-97.150;2023-11-22T07:32:46;5.10;99.90
17740;DHT22;8990;33.226;-97.150;2023-11-22T07:35:15;5.20;99.90
17740;DHT22;8990;33.226;-97.150;2023-11-22T07:37:46;5.20;99.90
17740;DHT22;8990;33.226;-97.150;2023-11-22T07:40:18;5.10;99.90
17740;DHT22;8990;33.226;-97.150;2023-11-22T07:42:51;5.10;99.90
17740;DHT22;8990;33.226;-97.150;2023-11-22T07:45:19;5.10;99.90
17740;DHT22;8990;33.226;-97.150;2023-11-22T07:47:49;5.10;99.90
17740;DHT22;8990;33.226;-97.150;2023-11-22T07:50:20;5.20;99.90
17740;DHT22;8990;33.226;-97.150;2023-11-22T07:52:51;5.20;99.90
17740;DHT22;8990;33.226;-97.150;2023-11-22T07:55:20;5.20;99.90
17740;DHT22;8990;33.226;-97.150;2023-11-22T07:57:51;5.20;99.90
17740;DHT22;8990;33.226;-97.150;2023-11-22T08:00:24;5.20;99.90
17740;DHT22;8990;33.226;-97.150;2023-11-22T08:02:55;5.10;99.90
17740;DHT22;8990;33.226;-97.150;2023-11-22T08:05:24;5.00;99.90
17740;DHT22;8990;33.226;-97.150;2023-11-22T08:07:54;5.00;99.90
17740;DHT22;8990;33.226;-97.150;2023-11-22T08:10:24;4.90;99.90
17740;DHT22;8990;33.226;-97.150;2023-11-22T08:12:56;5.00;99.90
17740;DHT22;8990;33.226;-97.150;2023-11-22T08:15:25;5.00;99.90
17740;DHT22;8990;33.226;-97.150;2023-11-22T08:17:53;4.90;99.90
17740;DHT22;8990;33.226;-97.150;2023-11-22T08:20:22;4.90;99.90
17740;DHT22;8990;33.226;-97.150;2023-11-22T08:22:52;5.00;99.90
17740;DHT22;8990;33.226;-97.150;2023-11-22T08:25:21;4.80;99.90
17740;DHT22;8990;33.226;-97.150;2023-11-22T08:27:50;4.80;99.90
17740;DHT22;8990;33.226;-97.150;2023-11-22T08:30:22;4.90;99.90
17740;DHT22;8990;33.226;-97.150;2023-11-22T08:32:51;4.90;99.90
17740;DHT22;8990;33.226;-97.150;2023-11-22T08:35:21;4.90;99.90
17740;DHT22;8990;33.226;-97.150;2023-11-22T08:37:50;4.90;99.90
17740;DHT22;8990;33.226;-97.150;2023-11-22T08:40:20;4.90;99.90
17740;DHT22;8990;33.226;-97.150;2023-11-22T08:42:49;4.80;99.90
17740;DHT22;8990;33.226;-97.150;2023-11-22T08:45:18;4.80;99.90
17740;DHT22;8990;33.226;-97.150;2023-11-22T08:47:48;4.80;99.90
17740;DHT22;8990;33.226;-97.150;2023-11-22T08:50:18;4.80;99.90
17740;DHT22;8990;33.226;-97.150;2023-11-22T08:52:46;4.70;99.90
17740;DHT22;8990;33.226;-97.150;2023-11-22T08:55:16;4.80;99.90
17740;DHT22;8990;33.226;-97.150;2023-11-22T08:57:47;4.70;99.90
17740;DHT22;8990;33.226;-97.150;2023-11-22T09:00:18;4.70;99.90
17740;DHT22;8990;33.226;-97.150;2023-11-22T09:02:51;4.70;99.90
17740;DHT22;8990;33.226;-97.150;2023-11-22T09:05:20;4.70;99.90
17740;DHT22;8990;33.226;-97.150;2023-11-22T09:07:48;4.80;99.90
17740;DHT22;8990;33.226;-97.150;2023-11-22T09:10:18;4.90;99.90
17740;DHT22;8990;33.226;-97.150;2023-11-22T09:12:48;4.80;99.90
17740;DHT22;8990;33.226;-97.150;2023-11-22T09:15:18;4.80;99.90
17740;DHT22;8990;33.226;-97.150;2023-11-22T09:17:54;4.80;99.90
17740;DHT22;8990;33.226;-97.150;2023-11-22T09:20:24;4.70;99.90
17740;DHT22;8990;33.226;-97.150;2023-11-22T09:22:53;4.70;99.90
17740;DHT22;8990;33.226;-97.150;2023-11-22T09:25:24;4.80;99.90
17740;DHT22;8990;33.226;-97.150;2023-11-22T09:27:53;4.80;99.90
17740;DHT22;8990;33.226;-97.150;2023-11-22T09:30:26;4.80;99.90
17740;DHT22;8990;33.226;-97.150;2023-11-22T09:33:05;4.70;99.90
17740;DHT22;8990;33.226;-97.150;2023-11-22T09:35:34;4.80;99.90
17740;DHT22;8990;33.226;-97.150;2023-11-22T09:38:05;4.70;99.90
17740;DHT22;8990;33.226;-97.150;2023-11-22T09:40:41;4.60;99.90
17740;DHT22;8990;33.226;-97.150;2023-11-22T09:43:10;4.60;99.90
17740;DHT22;8990;33.226;-97.150;2023-11-22T09:45:42;4.60;99.90
17740;DHT22;8990;33.226;-97.150;2023-11-22T09:48:16;4.70;99.90
17740;DHT22;8990;33.226;-97.150;2023-11-22T09:50:50;4.60;99.90
17740;DHT22;8990;33.226;-97.150;2023-11-22T09:53:31;4.60;99.90
17740;DHT22;8990;33.226;-97.150;2023-11-22T09:56:02;4.60;99.90
17740;DHT22;8990;33.226;-97.150;2023-11-22T09:58:34;4.60;99.90
17740;DHT22;8990;33.226;-97.150;2023-11-22T10:01:03;4.60;99.90
17740;DHT22;8990;33.226;-97.150;2023-11-22T10:03:36;4.60;99.90
17740;DHT22;8990;33.226;-97.150;2023-11-22T10:06:06;4.60;99.90
17740;DHT22;8990;33.226;-97.150;2023-11-22T10:08:35;4.70;99.90
17740;DHT22;8990;33.226;-97.150;2023-11-22T10:11:05;4.60;99.90
17740;DHT22;8990;33.226;-97.150;2023-11-22T10:13:34;4.60;99.90
17740;DHT22;8990;33.226;-97.150;2023-11-22T10:16:10;4.50;99.90
17740;DHT22;8990;33.226;-97.150;2023-11-22T10:18:42;4.60;99.90
17740;DHT22;8990;33.226;-97.150;2023-11-22T10:21:21;4.60;99.90
17740;DHT22;8990;33.226;-97.150;2023-11-22T10:23:51;4.60;99.90
17740;DHT22;8990;33.226;-97.150;2023-11-22T10:26:23;4.60;99.90
17740;DHT22;8990;33.226;-97.150;2023-11-22T10:28:54;4.50;99.90
17740;DHT22;8990;33.226;-97.150;2023-11-22T10:31:23;4.60;99.90
17740;DHT22;8990;33.226;-97.150;2023-11-22T10:33:55;4.50;99.90
17740;DHT22;8990;33.226;-97.150;2023-11-22T10:36:24;4.50;99.90
17740;DHT22;8990;33.226;-97.150;2023-11-22T10:38:54;4.50;99.90
17740;DHT22;8990;33.226;-97.150;2023-11-22T10:41:24;4.50;99.90
17740;DHT22;8990;33.226;-97.150;2023-11-22T10:43:54;4.40;99.90
17740;DHT22;8990;33.226;-97.150;2023-11-22T10:46:28;4.40;99.90
17740;DHT22;8990;33.226;-97.150;2023-11-22T10:48:59;4.30;99.90
17740;DHT22;8990;33.226;-97.150;2023-11-22T10:51:31;4.30;99.90
17740;DHT22;8990;33.226;-97.150;2023-11-22T10:54:01;4.30;99.90
17740;DHT22;8990;33.226;-97.150;2023-11-22T10:56:36;4.40;99.90
17740;DHT22;8990;33.226;-97.150;2023-11-22T10:59:11;4.40;99.90
17740;DHT22;8990;33.226;-97.150;2023-11-22T11:01:44;4.40;99.90
17740;DHT22;8990;33.226;-97.150;2023-11-22T11:04:29;4.40;99.90
17740;DHT22;8990;33.226;-97.150;2023-11-22T11:07:02;4.40;99.90
17740;DHT22;8990;33.226;-97.150;2023-11-22T11:09:33;4.40;99.90
17740;DHT22;8990;33.226;-97.150;2023-11-22T11:12:04;4.40;99.90
17740;DHT22;8990;33.226;-97.150;2023-11-22T11:14:33;4.40;99.90
17740;DHT22;8990;33.226;-97.150;2023-11-22T11:17:02;4.40;99.90
17740;DHT22;8990;33.226;-97.150;2023-11-22T11:19:33;4.30;99.90
17740;DHT22;8990;33.226;-97.150;2023-11-22T11:22:03;4.40;99.90
17740;DHT22;8990;33.226;-97.150;2023-11-22T11:24:39;4.40;99.90
17740;DHT22;8990;33.226;-97.150;2023-11-22T11:27:11;4.30;99.90
17740;DHT22;8990;33.226;-97.150;2023-11-22T11:29:40;4.30;99.90
17740;DHT22;8990;33.226;-97.150;2023-11-22T11:32:11;4.30;99.90
17740;DHT22;8990;33.226;-97.150;2023-11-22T11:34:51;4.30;99.90
17740;DHT22;8990;33.226;-97.150;2023-11-22T11:37:20;4.30;99.90
17740;DHT22;8990;33.226;-97.150;2023-11-22T11:39:49;4.40;99.90
17740;DHT22;8990;33.226;-97.150;2023-11-22T11:42:18;4.30;99.90
17740;DHT22;8990;33.226;-97.150;2023-11-22T11:45:04;4.20;99.90
17740;DHT22;8990;33.226;-97.150;2023-11-22T11:47:34;4.10;99.90
17740;DHT22;8990;33.226;-97.150;2023-11-22T11:50:06;4.20;99.90
17740;DHT22;8990;33.226;-97.150;2023-11-22T11:52:39;4.20;99.90
17740;DHT22;8990;33.226;-97.150;2023-11-22T11:55:08;4.20;99.90
17740;DHT22;8990;33.226;-97.150;2023-11-22T11:57:37;4.30;99.90
17740;DHT22;8990;33.226;-97.150;2023-11-22T12:00:07;4.20;99.90
17740;DHT22;8990;33.226;-97.150;2023-11-22T12:02:39;4.10;99.90
17740;DHT22;8990;33.226;-97.150;2023-11-22T12:05:10;4.20;99.90
17740;DHT22;8990;33.226;-97.150;2023-11-22T12:07:40;4.10;99.90
17740;DHT22;8990;33.226;-97.150;2023-11-22T12:10:10;4.10;99.90
17740;DHT22;8990;33.226;-97.150;2023-11-22T12:12:39;4.20;99.90
17740;DHT22;8990;33.226;-97.150;2023-11-22T12:15:09;4.10;99.90
17740;DHT22;8990;33.226;-97.150;2023-11-22T12:17:39;4.00;99.90
17740;DHT22;8990;33.226;-97.150;2023-11-22T12:20:15;3.90;99.90
17740;DHT22;8990;33.226;-97.150;2023-11-22T12:22:45;3.90;99.90
17740;DHT22;8990;33.226;-97.150;2023-11-22T12:25:14;3.80;99.90
17740;DHT22;8990;33.226;-97.150;2023-11-22T12:27:44;3.80;99.90
17740;DHT22;8990;33.226;-97.150;2023-11-22T12:30:29;3.90;99.90
17740;DHT22;8990;33.226;-97.150;2023-11-22T12:33:01;3.80;99.90
17740;DHT22;8990;33.226;-97.150;2023-11-22T12:35:33;3.80;99.90
17740;DHT22;8990;33.226;-97.150;2023-11-22T12:38:05;3.80;99.90
17740;DHT22;8990;33.226;-97.150;2023-11-22T12:40:34;3.80;99.90
17740;DHT22;8990;33.226;-97.150;2023-11-22T12:43:03;3.80;99.90
17740;DHT22;8990;33.226;-97.150;2023-11-22T12:45:33;3.70;99.90
17740;DHT22;8990;33.226;-97.150;2023-11-22T12:48:23;3.70;99.90
17740;DHT22;8990;33.226;-97.150;2023-11-22T12:50:54;3.80;99.90
17740;DHT22;8990;33.226;-97.150;2023-11-22T12:53:24;3.80;99.90
17740;DHT22;8990;33.226;-97.150;2023-11-22T12:55:56;3.80;99.90
17740;DHT22;8990;33.226;-97.150;2023-11-22T12:58:25;3.70;99.90
17740;DHT22;8990;33.226;-97.150;2023-11-22T13:00:55;3.80;99.90
17740;DHT22;8990;33.226;-97.150;2023-11-22T13:03:28;3.80;99.90
17740;DHT22;8990;33.226;-97.150;2023-11-22T13:06:00;3.80;99.90
17740;DHT22;8990;33.226;-97.150;2023-11-22T13:08:29;3.80;99.90
17740;DHT22;8990;33.226;-97.150;2023-11-22T13:10:59;3.80;99.90
17740;DHT22;8990;33.226;-97.150;2023-11-22T13:13:28;3.80;99.90
17740;DHT22;8990;33.226;-97.150;2023-11-22T13:15:57;3.80;99.90
17740;DHT22;8990;33.226;-97.150;2023-11-22T13:18:26;3.80;99.90
17740;DHT22;8990;33.226;-97.150;2023-11-22T13:20:56;3.70;99.90
17740;DHT22;8990;33.226;-97.150;2023-11-22T13:23:26;3.60;99.90
17740;DHT22;8990;33.226;-97.150;2023-11-22T13:25:55;3.70;99.90
17740;DHT22;8990;33.226;-97.150;2023-11-22T13:28:24;3.80;99.90
17740;DHT22;8990;33.226;-97.150;2023-11-22T13:30:53;3.70;99.90
17740;DHT22;8990;33.226;-97.150;2023-11-22T13:33:22;3.80;99.90
17740;DHT22;8990;33.226;-97.150;2023-11-22T13:35:51;3.90;99.90
17740;DHT22;8990;33.226;-97.150;2023-11-22T13:38:20;4.00;99.90
17740;DHT22;8990;33.226;-97.150;2023-11-22T13:40:50;4.10;99.90
17740;DHT22;8990;33.226;-97.150;2023-11-22T13:43:19;4.20;99.90
17740;DHT22;8990;33.226;-97.150;2023-11-22T13:45:48;4.20;99.90
17740;DHT22;8990;33.226;-97.150;2023-11-22T13:48:17;4.40;99.90
17740;DHT22;8990;33.226;-97.150;2023-11-22T13:50:46;4.50;99.90
17740;DHT22;8990;33.226;-97.150;2023-11-22T13:53:15;4.60;99.90
17740;DHT22;8990;33.226;-97.150;2023-11-22T13:55:50;4.70;99.90
17740;DHT22;8990;33.226;-97.150;2023-11-22T13:58:20;4.90;99.90
17740;DHT22;8990;33.226;-97.150;2023-11-22T14:00:49;4.90;99.90
17740;DHT22;8990;33.226;-97.150;2023-11-22T14:03:21;5.10;99.90
17740;DHT22;8990;33.226;-97.150;2023-11-22T14:05:50;5.20;99.90
17740;DHT22;8990;33.226;-97.150;2023-11-22T14:08:19;5.30;99.90
17740;DHT22;8990;33.226;-97.150;2023-11-22T14:10:49;5.50;99.90
17740;DHT22;8990;33.226;-97.150;2023-11-22T14:13:18;5.60;99.90
17740;DHT22;8990;33.226;-97.150;2023-11-22T14:15:47;5.70;99.90
17740;DHT22;8990;33.226;-97.150;2023-11-22T14:18:16;5.90;99.90
17740;DHT22;8990;33.226;-97.150;2023-11-22T14:20:45;6.00;99.90
17740;DHT22;8990;33.226;-97.150;2023-11-22T14:23:14;6.10;99.90
17740;DHT22;8990;33.226;-97.150;2023-11-22T14:25:44;6.10;99.90
17740;DHT22;8990;33.226;-97.150;2023-11-22T14:28:14;6.30;99.90
17740;DHT22;8990;33.226;-97.150;2023-11-22T14:30:43;6.50;99.90
17740;DHT22;8990;33.226;-97.150;2023-11-22T14:33:12;6.60;99.90
17740;DHT22;8990;33.226;-97.150;2023-11-22T14:35:42;6.70;99.90
17740;DHT22;8990;33.226;-97.150;2023-11-22T14:38:12;6.70;99.90
17740;DHT22;8990;33.226;-97.150;2023-11-22T14:40:41;6.90;99.90
17740;DHT22;8990;33.226;-97.150;2023-11-22T14:43:10;7.00;99.90
17740;DHT22;8990;33.226;-97.150;2023-11-22T14:45:41;7.10;99.90
17740;DHT22;8990;33.226;-97.150;2023-11-22T14:48:10;7.20;99.90
17740;DHT22;8990;33.226;-97.150;2023-11-22T14:50:40;7.40;99.90
17740;DHT22;8990;33.226;-97.150;2023-11-22T14:53:09;7.60;99.90
17740;DHT22;8990;33.226;-97.150;2023-11-22T14:55:37;7.60;99.90
17740;DHT22;8990;33.226;-97.150;2023-11-22T14:58:08;7.70;99.90
17740;DHT22;8990;33.226;-97.150;2023-11-22T15:00:37;7.90;99.90
17740;DHT22;8990;33.226;-97.150;2023-11-22T15:03:07;8.00;99.90
17740;DHT22;8990;33.226;-97.150;2023-11-22T15:05:38;8.10;99.90
17740;DHT22;8990;33.226;-97.150;2023-11-22T15:08:07;8.30;99.90
17740;DHT22;8990;33.226;-97.150;2023-11-22T15:10:36;8.40;99.90
17740;DHT22;8990;33.226;-97.150;2023-11-22T15:13:05;8.50;99.90
17740;DHT22;8990;33.226;-97.150;2023-11-22T15:15:34;8.60;99.90
17740;DHT22;8990;33.226;-97.150;2023-11-22T15:18:03;8.70;99.90
17740;DHT22;8990;33.226;-97.150;2023-11-22T15:20:33;8.70;99.90
17740;DHT22;8990;33.226;-97.150;2023-11-22T15:23:03;8.90;99.90
17740;DHT22;8990;33.226;-97.150;2023-11-22T15:25:32;9.10;99.90
17740;DHT22;8990;33.226;-97.150;2023-11-22T15:28:01;9.20;99.90
17740;DHT22;8990;33.226;-97.150;2023-11-22T15:30:32;9.30;99.90
17740;DHT22;8990;33.226;-97.150;2023-11-22T15:33:01;9.30;99.90
17740;DHT22;8990;33.226;-97.150;2023-11-22T15:35:33;9.50;99.90
17740;DHT22;8990;33.226;-97.150;2023-11-22T15:38:02;9.50;99.90
17740;DHT22;8990;33.226;-97.150;2023-11-22T15:40:31;9.70;99.90
17740;DHT22;8990;33.226;-97.150;2023-11-22T15:43:00;9.70;99.90
17740;DHT22;8990;33.226;-97.150;2023-11-22T15:45:29;9.80;99.90
17740;DHT22;8990;33.226;-97.150;2023-11-22T15:47:58;9.80;99.90